Time;durP1;ratioP1;P1;durP2;ratioP2;P2;SDS_P1;SDS_P2;PMS_P1;PMS_P2;Temp;Humidity;BMP_temperature;BMP_pressure;BME280_temperature;BME280_humidity;BME280_pressure;Samples;Min_cycle;Max_cycle;Signal;HPM_P1;HPM_P2
2022/10/19 00:02:02;;;;;;;5.80;5.30;;;21.90;58.70;;;;;;5039549;28;20196;-47
2022/10/19 00:04:28;;;;;;;8.00;4.80;;;21.90;58.50;;;;;;5040563;28;20709;-52
2022/10/19 00:06:54;;;;;;;6.90;5.27;;;21.80;58.60;;;;;;5045950;28;20192;-50
2022/10/19 00:09:19;;;;;;;6.43;4.63;;;21.80;58.70;;;;;;5048745;28;20628;-51
2022/10/19 00:11:47;;;;;;;7.03;4.23;;;21.70;58.50;;;;;;5048480;28;20297;-48
2022/10/19 00:14:17;;;;;;;5.80;5.27;;;21.60;58.50;;;;;;5046584;28;20985;-48
2022/10/19 00:16:44;;;;;;;7.20;5.13;;;21.60;58.60;;;;;;5036847;28;20525;-47
2022/10/19 00:19:18;;;;;;;5.80;5.20;;;21.50;58.70;;;;;;5042499;28;20442;-48
2022/10/19 00:21:44;;;;;;;5.87;5.00;;;21.50;59.00;;;;;;5044846;28;20445;-49
2022/10/19 00:24:10;;;;;;;8.23;4.90;;;21.50;59.40;;;;;;5048037;28;20465;-47
2022/10/19 00:26:36;;;;;;;10.53;4.60;;;21.50;59.50;;;;;;5047887;28;20197;-51
2022/10/19 00:29:03;;;;;;;8.43;5.90;;;21.40;59.40;;;;;;5048919;28;20653;-48
2022/10/19 00:31:28;;;;;;;12.93;6.73;;;21.50;59.50;;;;;;5045888;28;20467;-48
2022/10/19 00:33:56;;;;;;;10.30;6.20;;;21.50;59.90;;;;;;5036816;28;20514;-48
2022/10/19 00:36:23;;;;;;;17.63;6.97;;;21.50;60.10;;;;;;5051326;28;20185;-49
2022/10/19 00:38:49;;;;;;;16.77;7.40;;;21.50;60.30;;;;;;5042524;28;20903;-48
2022/10/19 00:41:16;;;;;;;11.70;7.87;;;21.50;60.50;;;;;;5040206;28;20445;-48
2022/10/19 00:44:04;;;;;;;12.53;7.13;;;21.50;60.70;;;;;;5043935;28;20447;-47
2022/10/19 00:46:36;;;;;;;8.40;7.17;;;21.50;61.20;;;;;;5048535;28;20473;-50
2022/10/19 00:49:16;;;;;;;16.03;7.20;;;21.50;61.30;;;;;;5049813;28;21055;-49
2022/10/19 00:51:45;;;;;;;8.70;7.53;;;21.40;61.90;;;;;;5044804;28;20529;-50
2022/10/19 00:54:11;;;;;;;10.20;7.37;;;21.40;63.30;;;;;;5048486;28;20513;-47
2022/10/19 00:56:39;;;;;;;17.30;6.40;;;21.40;62.90;;;;;;5046768;28;21224;-49
2022/10/19 00:59:06;;;;;;;15.40;7.93;;;21.40;63.50;;;;;;5047301;28;20613;-50
2022/10/19 01:01:32;;;;;;;11.53;7.63;;;21.40;63.60;;;;;;5041689;28;20444;-52
2022/10/19 01:03:59;;;;;;;10.70;8.73;;;21.40;63.10;;;;;;5047281;28;20450;-50
2022/10/19 01:06:25;;;;;;;12.60;8.70;;;21.40;62.90;;;;;;5042776;28;20434;-51
2022/10/19 01:08:51;;;;;;;15.03;8.90;;;21.40;62.70;;;;;;5049972;28;20443;-49
2022/10/19 01:11:35;;;;;;;28.47;9.40;;;21.40;62.60;;;;;;5050040;28;21104;-48
2022/10/19 01:14:03;;;;;;;13.10;7.93;;;21.40;62.80;;;;;;5045510;28;20220;-51
2022/10/19 01:17:19;;;;;;;15.00;7.03;;;21.30;63.00;;;;;;5043939;28;20463;-52
2022/10/19 01:20:05;;;;;;;12.33;7.50;;;21.30;63.10;;;;;;4984861;28;20524;-49
2022/10/19 01:22:44;;;;;;;11.47;7.57;;;21.30;63.70;;;;;;5043031;28;20499;-49
2022/10/19 01:25:23;;;;;;;14.07;7.30;;;21.30;63.80;;;;;;5045369;28;20447;-49
2022/10/19 01:28:16;;;;;;;14.70;7.80;;;21.30;63.70;;;;;;5044481;28;20493;-52
2022/10/19 01:30:57;;;;;;;12.20;7.40;;;21.40;63.80;;;;;;5048649;28;20447;-52
2022/10/19 01:33:40;;;;;;;9.00;7.37;;;21.40;63.80;;;;;;5044316;28;20877;-51
2022/10/19 01:36:25;;;;;;;7.30;5.83;;;21.40;63.80;;;;;;5048119;28;20967;-51
2022/10/19 01:38:53;;;;;;;10.00;7.67;;;21.50;63.60;;;;;;5046811;28;20942;-49
2022/10/19 01:41:40;;;;;;;8.83;7.53;;;21.50;63.30;;;;;;5044819;28;20970;-49
2022/10/19 01:44:14;;;;;;;7.43;6.73;;;21.60;63.00;;;;;;5041992;28;20806;-49
2022/10/19 01:46:46;;;;;;;7.67;6.90;;;21.60;62.80;;;;;;5045970;28;21224;-52
2022/10/19 01:49:17;;;;;;;10.93;7.37;;;21.60;63.10;;;;;;5045427;28;20439;-52
2022/10/19 01:51:52;;;;;;;12.63;7.07;;;21.50;63.80;;;;;;5043257;28;20492;-53
2022/10/19 01:54:21;;;;;;;7.60;6.80;;;21.50;63.50;;;;;;5043012;28;20870;-52
2022/10/19 01:56:48;;;;;;;24.13;6.60;;;21.40;64.10;;;;;;5042609;28;20447;-50
2022/10/19 01:59:17;;;;;;;8.60;6.73;;;21.30;64.50;;;;;;5049103;28;20447;-52
2022/10/19 02:01:47;;;;;;;10.43;8.30;;;21.30;65.00;;;;;;5030162;28;20443;-52
2022/10/19 02:04:17;;;;;;;13.10;8.17;;;21.30;65.00;;;;;;5050750;28;20427;-52
2022/10/19 02:06:43;;;;;;;12.37;6.73;;;21.30;65.00;;;;;;5050721;28;20803;-52
2022/10/19 02:09:09;;;;;;;8.00;7.20;;;21.40;64.80;;;;;;5045953;28;20435;-51
2022/10/19 02:11:36;;;;;;;9.27;8.23;;;21.30;64.50;;;;;;5038392;28;21127;-52
2022/10/19 02:14:10;;;;;;;12.20;7.50;;;21.40;65.00;;;;;;5044213;28;20369;-49
2022/10/19 02:16:44;;;;;;;10.10;7.30;;;21.40;65.20;;;;;;5041816;28;20508;-51
2022/10/19 02:19:13;;;;;;;9.43;8.43;;;21.40;65.00;;;;;;5045737;28;20838;-51
2022/10/19 02:21:39;;;;;;;8.33;7.50;;;21.40;64.90;;;;;;5042776;28;20953;-52
2022/10/19 02:24:04;;;;;;;14.07;8.67;;;21.40;64.50;;;;;;5048785;28;20435;-52
2022/10/19 02:26:30;;;;;;;17.50;9.20;;;21.50;64.10;;;;;;5047698;28;20651;-52
2022/10/19 02:28:57;;;;;;;10.43;7.80;;;21.50;63.80;;;;;;5042385;28;20203;-51
2022/10/19 02:31:24;;;;;;;11.73;6.33;;;21.50;64.00;;;;;;5046333;28;20435;-52
2022/10/19 02:33:50;;;;;;;11.97;8.53;;;21.50;64.00;;;;;;5048080;28;20543;-51
2022/10/19 02:36:16;;;;;;;15.83;7.87;;;21.50;63.70;;;;;;5040994;28;21338;-52
2022/10/19 02:38:42;;;;;;;8.83;7.80;;;21.50;64.00;;;;;;5048030;28;20447;-52
2022/10/19 02:41:15;;;;;;;15.07;9.17;;;21.50;64.20;;;;;;5049739;28;20445;-51
2022/10/19 02:43:43;;;;;;;9.00;7.20;;;21.50;64.10;;;;;;5046146;28;20193;-52
2022/10/19 02:46:24;;;;;;;9.93;8.93;;;21.50;64.20;;;;;;5045815;28;20493;-53
2022/10/19 02:48:50;;;;;;;10.60;9.50;;;21.60;64.40;;;;;;5045098;28;20655;-51
2022/10/19 02:51:36;;;;;;;13.97;10.23;;;21.60;64.00;;;;;;5047757;28;20522;-52
2022/10/19 02:54:03;;;;;;;13.87;8.80;;;21.60;63.70;;;;;;5039120;28;20494;-52
2022/10/19 02:56:29;;;;;;;8.27;7.50;;;21.50;63.80;;;;;;5046876;28;20447;-51
2022/10/19 02:58:54;;;;;;;21.90;8.60;;;21.50;64.20;;;;;;5045400;28;20508;-51
2022/10/19 03:01:20;;;;;;;12.10;9.37;;;21.50;64.60;;;;;;5040807;28;20226;-52
2022/10/19 03:03:46;;;;;;;14.23;10.00;;;21.50;64.20;;;;;;5045178;28;20201;-53
2022/10/19 03:06:12;;;;;;;12.40;8.70;;;21.40;64.30;;;;;;5047337;28;20259;-52
2022/10/19 03:08:38;;;;;;;14.63;10.40;;;21.50;64.60;;;;;;5047501;28;21158;-52
2022/10/19 03:11:05;;;;;;;10.87;9.33;;;21.50;64.70;;;;;;5048563;28;20195;-48
2022/10/19 03:13:31;;;;;;;12.53;9.03;;;21.60;64.60;;;;;;5046801;28;20590;-49
2022/10/19 03:15:57;;;;;;;11.23;9.97;;;21.60;64.40;;;;;;5041033;28;20444;-52
2022/10/19 03:18:22;;;;;;;14.73;9.27;;;21.50;64.40;;;;;;5037158;28;20181;-47
2022/10/19 03:20:48;;;;;;;13.43;8.80;;;21.50;64.50;;;;;;5041129;28;20202;-50
2022/10/19 03:23:13;;;;;;;15.23;10.47;;;21.50;64.40;;;;;;5048532;28;20207;-48
2022/10/19 03:25:39;;;;;;;12.53;9.17;;;21.50;64.60;;;;;;5042953;28;20193;-48
2022/10/19 03:28:04;;;;;;;12.33;10.43;;;21.60;64.60;;;;;;5047816;28;20192;-50
2022/10/19 03:30:30;;;;;;;12.57;9.50;;;21.60;64.30;;;;;;5053321;28;20569;-48
2022/10/19 03:32:55;;;;;;;9.70;8.63;;;21.60;64.20;;;;;;5051780;28;20216;-52
2022/10/19 03:35:21;;;;;;;10.43;8.83;;;21.60;64.40;;;;;;5051893;28;20596;-49
2022/10/19 03:37:47;;;;;;;9.13;8.00;;;21.60;64.20;;;;;;5049713;28;20267;-48
2022/10/19 03:40:12;;;;;;;9.47;8.20;;;21.60;64.20;;;;;;5047601;28;20197;-47
2022/10/19 03:42:38;;;;;;;9.80;8.90;;;21.70;64.20;;;;;;5042682;28;20200;-47
2022/10/19 03:45:04;;;;;;;10.63;7.63;;;21.60;63.80;;;;;;5048422;28;20196;-48
2022/10/19 03:47:29;;;;;;;8.20;7.47;;;21.60;64.00;;;;;;5051243;28;20196;-50
2022/10/19 03:49:55;;;;;;;9.10;8.17;;;21.60;63.90;;;;;;5040300;28;20451;-49
2022/10/19 03:52:20;;;;;;;12.70;7.33;;;21.60;64.00;;;;;;5053843;28;20271;-50
2022/10/19 03:54:49;;;;;;;8.63;7.73;;;21.60;63.80;;;;;;5045300;28;20631;-48
2022/10/19 03:57:15;;;;;;;11.00;8.27;;;21.40;64.00;;;;;;5048922;28;20195;-50
2022/10/19 03:59:41;;;;;;;19.57;9.43;;;21.40;64.50;;;;;;5049273;28;20442;-50
2022/10/19 04:02:07;;;;;;;8.10;7.37;;;21.30;64.00;;;;;;5052206;28;20443;-48
2022/10/19 04:04:32;;;;;;;8.77;7.80;;;21.10;64.70;;;;;;5045306;28;20196;-47
2022/10/19 04:06:58;;;;;;;8.80;8.00;;;21.00;64.90;;;;;;5051244;28;20208;-49
2022/10/19 04:09:24;;;;;;;7.30;6.70;;;21.00;64.90;;;;;;5048277;28;20201;-48
2022/10/19 04:11:50;;;;;;;8.17;7.50;;;21.10;64.60;;;;;;5050375;28;20188;-52
2022/10/19 04:14:18;;;;;;;8.47;7.67;;;21.00;64.10;;;;;;5047632;28;20246;-48
2022/10/19 04:16:43;;;;;;;10.93;8.27;;;21.00;63.90;;;;;;5045210;28;20381;-52
2022/10/19 04:19:14;;;;;;;9.10;8.07;;;21.00;63.60;;;;;;5045828;28;20512;-48
2022/10/19 04:21:40;;;;;;;8.63;7.50;;;20.90;63.60;;;;;;5044968;28;20198;-48
2022/10/19 04:24:12;;;;;;;8.00;7.20;;;20.90;63.70;;;;;;5047936;28;20483;-47
2022/10/19 04:26:41;;;;;;;8.10;7.20;;;20.80;63.80;;;;;;5043950;28;20457;-48
2022/10/19 04:29:06;;;;;;;7.37;6.67;;;20.80;63.80;;;;;;5042180;28;20603;-47
2022/10/19 04:31:32;;;;;;;8.03;7.33;;;20.70;64.10;;;;;;5044347;28;20542;-48
2022/10/19 04:33:58;;;;;;;8.13;7.33;;;20.60;64.20;;;;;;5047173;28;20228;-47
2022/10/19 04:36:23;;;;;;;7.87;7.17;;;20.50;65.10;;;;;;5047667;28;20283;-48
2022/10/19 04:38:49;;;;;;;8.47;7.67;;;20.40;65.30;;;;;;5042698;28;20204;-49
2022/10/19 04:41:17;;;;;;;8.43;6.40;;;20.50;65.20;;;;;;5040350;28;20196;-47
2022/10/19 04:43:44;;;;;;;9.07;6.70;;;20.50;64.80;;;;;;5038819;28;20287;-48
2022/10/19 04:46:16;;;;;;;9.57;6.93;;;20.50;64.30;;;;;;5042512;28;20451;-48
2022/10/19 04:48:43;;;;;;;11.83;7.33;;;20.50;64.20;;;;;;5046108;28;20542;-51
2022/10/19 04:51:09;;;;;;;7.80;7.00;;;20.50;63.90;;;;;;5044396;28;20517;-50
2022/10/19 04:53:37;;;;;;;9.10;8.30;;;20.50;63.90;;;;;;5040309;28;20443;-51
2022/10/19 04:56:04;;;;;;;8.80;8.10;;;20.40;63.80;;;;;;5047462;28;21432;-47
2022/10/19 04:58:30;;;;;;;7.97;6.63;;;20.40;63.90;;;;;;5048583;28;20446;-47
2022/10/19 05:00:56;;;;;;;10.73;7.27;;;20.30;63.60;;;;;;5049622;28;20443;-47
2022/10/19 05:03:21;;;;;;;8.20;7.40;;;20.30;63.70;;;;;;5050145;28;20233;-49
2022/10/19 05:05:47;;;;;;;8.03;7.33;;;20.30;63.70;;;;;;5042178;28;20193;-47
2022/10/19 05:08:12;;;;;;;7.80;7.10;;;20.20;63.90;;;;;;5045999;28;20305;-48
2022/10/19 05:10:38;;;;;;;9.40;8.50;;;20.20;64.20;;;;;;5051735;28;20193;-47
2022/10/19 05:13:04;;;;;;;9.70;8.70;;;20.20;64.50;;;;;;5047675;28;20201;-50
2022/10/19 05:15:30;;;;;;;10.17;8.50;;;20.10;64.60;;;;;;5043903;28;20220;-49
2022/10/19 05:17:55;;;;;;;9.97;9.00;;;20.00;65.40;;;;;;5045148;28;20465;-52
2022/10/19 05:20:22;;;;;;;12.87;9.00;;;20.00;65.40;;;;;;5051481;28;20197;-49
2022/10/19 05:22:48;;;;;;;9.47;8.60;;;20.00;65.50;;;;;;5047915;28;20439;-48
2022/10/19 05:25:13;;;;;;;9.00;8.10;;;20.00;65.60;;;;;;5049163;28;20441;-49
2022/10/19 05:27:39;;;;;;;9.97;9.03;;;20.00;65.60;;;;;;5044265;28;20442;-50
2022/10/19 05:30:07;;;;;;;9.27;8.37;;;20.10;66.20;;;;;;5046051;28;20268;-48
2022/10/19 05:32:32;;;;;;;8.30;7.60;;;20.10;65.20;;;;;;5048159;28;20294;-49
2022/10/19 05:34:58;;;;;;;8.67;7.83;;;20.20;65.30;;;;;;5044648;28;21128;-48
2022/10/19 05:37:24;;;;;;;9.50;8.20;;;20.20;65.10;;;;;;5046517;28;20307;-49
2022/10/19 05:39:50;;;;;;;13.23;8.10;;;20.20;65.20;;;;;;5049918;28;20282;-48
2022/10/19 05:42:16;;;;;;;9.90;8.97;;;20.20;65.40;;;;;;5049850;28;20463;-48
2022/10/19 05:44:41;;;;;;;9.43;8.53;;;20.20;65.40;;;;;;5044133;28;20204;-52
2022/10/19 05:47:07;;;;;;;8.27;7.47;;;20.30;65.50;;;;;;5042964;28;20556;-48
2022/10/19 05:49:32;;;;;;;8.77;7.97;;;20.30;65.60;;;;;;5036407;28;20201;-52
2022/10/19 05:51:58;;;;;;;7.80;7.20;;;20.40;65.30;;;;;;5062166;28;20192;-47
2022/10/19 05:54:24;;;;;;;10.23;7.60;;;20.50;64.80;;;;;;5051124;28;20227;-48
2022/10/19 05:56:49;;;;;;;9.70;8.70;;;20.50;64.50;;;;;;5042184;28;20198;-49
2022/10/19 05:59:20;;;;;;;9.20;8.40;;;20.60;64.30;;;;;;5044884;28;20192;-49
2022/10/19 06:01:46;;;;;;;9.10;8.20;;;20.70;64.10;;;;;;5046124;28;20200;-48
2022/10/19 06:04:13;;;;;;;11.53;9.10;;;20.70;63.80;;;;;;5046031;28;20440;-48
2022/10/19 06:06:40;;;;;;;10.87;9.87;;;20.80;63.80;;;;;;5049765;28;20504;-49
2022/10/19 06:09:05;;;;;;;13.47;12.30;;;20.80;63.70;;;;;;5049401;28;20486;-48
2022/10/19 06:11:34;;;;;;;12.77;11.07;;;20.90;63.90;;;;;;5045221;28;20431;-50
2022/10/19 06:14:02;;;;;;;12.97;11.60;;;20.90;63.50;;;;;;5048453;28;20225;-52
2022/10/19 06:16:29;;;;;;;13.43;11.60;;;20.90;63.30;;;;;;5048086;28;20469;-52
2022/10/19 06:18:56;;;;;;;12.10;11.00;;;21.00;63.40;;;;;;5049448;28;20522;-53
2022/10/19 06:21:25;;;;;;;10.63;8.03;;;21.10;63.50;;;;;;5048089;28;20561;-49
2022/10/19 06:24:02;;;;;;;9.63;8.60;;;21.20;63.30;;;;;;5029857;28;20450;-52
2022/10/19 06:26:29;;;;;;;10.80;8.40;;;21.20;62.80;;;;;;5039816;28;20451;-51
2022/10/19 06:28:58;;;;;;;9.00;8.20;;;21.20;62.60;;;;;;5042611;28;20427;-53
2022/10/19 06:31:27;;;;;;;9.77;8.17;;;21.20;62.70;;;;;;5027271;28;20462;-50
2022/10/19 06:33:53;;;;;;;10.73;9.70;;;21.00;63.00;;;;;;5044169;28;20491;-53
2022/10/19 06:36:21;;;;;;;10.07;9.07;;;20.90;63.90;;;;;;5042296;28;20501;-51
2022/10/19 06:38:48;;;;;;;8.60;7.50;;;20.90;64.00;;;;;;5046838;28;20216;-53
2022/10/19 06:41:13;;;;;;;9.93;8.87;;;20.80;64.90;;;;;;5048564;28;21095;-52
2022/10/19 06:43:41;;;;;;;8.07;7.30;;;20.80;65.50;;;;;;5044978;28;20442;-51
2022/10/19 06:46:09;;;;;;;10.47;9.37;;;20.80;65.00;;;;;;5040486;28;20192;-53
2022/10/19 06:48:35;;;;;;;8.37;7.30;;;20.80;65.20;;;;;;5043074;28;20578;-50
2022/10/19 06:51:03;;;;;;;8.53;7.60;;;20.80;65.30;;;;;;5044441;28;20851;-53
2022/10/19 06:53:29;;;;;;;8.97;8.17;;;20.90;65.20;;;;;;5045164;28;20211;-52
2022/10/19 06:55:58;;;;;;;8.77;7.87;;;20.90;64.90;;;;;;5049716;28;20869;-53
2022/10/19 06:58:24;;;;;;;9.13;8.07;;;21.00;64.30;;;;;;5044470;28;20193;-51
2022/10/19 07:00:55;;;;;;;8.00;6.63;;;21.00;63.40;;;;;;5046150;28;20887;-50
2022/10/19 07:03:22;;;;;;;9.47;7.67;;;20.80;64.60;;;;;;5044005;28;20466;-50
2022/10/19 07:05:55;;;;;;;9.60;7.23;;;20.80;65.00;;;;;;5042275;28;20893;-50
2022/10/19 07:08:22;;;;;;;10.10;8.27;;;20.90;65.00;;;;;;5049645;28;20462;-51
2022/10/19 07:11:13;;;;;;;7.90;7.03;;;21.00;64.90;;;;;;5049573;28;20454;-51
2022/10/19 07:13:39;;;;;;;8.77;7.97;;;21.10;64.90;;;;;;5049002;28;20853;-50
2022/10/19 07:16:06;;;;;;;10.40;7.00;;;21.10;64.70;;;;;;5051247;28;20431;-51
2022/10/19 07:18:33;;;;;;;10.33;7.73;;;21.10;64.70;;;;;;5045263;28;20224;-50
2022/10/19 07:21:01;;;;;;;9.93;7.93;;;21.20;64.40;;;;;;5023813;28;20443;-48
2022/10/19 07:23:30;;;;;;;11.00;7.53;;;21.30;64.60;;;;;;5043807;28;20476;-49
2022/10/19 07:26:00;;;;;;;8.30;7.47;;;21.30;64.70;;;;;;5039047;28;20925;-49
2022/10/19 07:28:28;;;;;;;10.07;9.23;;;21.30;64.80;;;;;;5037304;28;20486;-49
2022/10/19 07:30:54;;;;;;;7.90;6.90;;;21.40;64.80;;;;;;5042971;28;20435;-49
2022/10/19 07:33:20;;;;;;;7.70;7.10;;;21.40;64.50;;;;;;5049342;28;20443;-48
2022/10/19 07:35:45;;;;;;;7.57;6.73;;;21.40;64.30;;;;;;5047003;28;20980;-48
2022/10/19 07:38:11;;;;;;;7.20;6.57;;;21.10;65.30;;;;;;5047848;28;20260;-49
2022/10/19 07:40:37;;;;;;;9.33;8.43;;;21.20;65.90;;;;;;5042711;28;20201;-48
2022/10/19 07:43:02;;;;;;;10.70;8.30;;;21.40;65.30;;;;;;5042924;28;20192;-48
2022/10/19 07:45:28;;;;;;;9.60;8.40;;;21.60;65.00;;;;;;5042454;28;20192;-48
2022/10/19 07:47:54;;;;;;;8.77;7.00;;;21.60;64.00;;;;;;5043087;28;20253;-48
2022/10/19 07:50:21;;;;;;;7.07;6.47;;;21.50;64.80;;;;;;5046795;28;20931;-48
2022/10/19 07:52:47;;;;;;;7.63;6.80;;;21.40;65.10;;;;;;5038235;28;20189;-48
2022/10/19 07:55:13;;;;;;;8.30;7.50;;;21.20;65.40;;;;;;5043873;28;21041;-50
2022/10/19 07:57:38;;;;;;;7.40;6.67;;;21.30;65.80;;;;;;5038422;28;20197;-48
2022/10/19 08:00:04;;;;;;;8.30;7.50;;;21.10;66.70;;;;;;5035126;28;20193;-48
2022/10/19 08:02:30;;;;;;;7.60;6.40;;;21.30;66.20;;;;;;5042234;28;20192;-49
2022/10/19 08:04:55;;;;;;;7.47;6.77;;;21.40;65.60;;;;;;5045530;28;20474;-48
2022/10/19 08:07:21;;;;;;;7.47;6.87;;;21.50;65.30;;;;;;5048102;28;20211;-49
2022/10/19 08:09:47;;;;;;;6.10;5.57;;;21.40;64.80;;;;;;5047593;28;20192;-49
2022/10/19 08:12:12;;;;;;;8.03;7.23;;;21.40;65.40;;;;;;5043314;28;20262;-48
2022/10/19 08:14:38;;;;;;;8.20;7.17;;;21.50;64.70;;;;;;5049948;28;20228;-50
2022/10/19 08:17:03;;;;;;;9.13;7.47;;;21.60;64.80;;;;;;5040971;28;20212;-49
2022/10/19 08:19:29;;;;;;;8.30;6.73;;;21.70;64.50;;;;;;5050389;28;20189;-48
2022/10/19 08:21:54;;;;;;;8.40;6.30;;;21.80;64.40;;;;;;5046961;28;20637;-50
2022/10/19 08:24:20;;;;;;;5.87;5.37;;;21.90;64.10;;;;;;5046640;28;20220;-48
2022/10/19 08:26:46;;;;;;;6.30;5.07;;;22.00;64.00;;;;;;5046977;28;20679;-51
2022/10/19 08:29:19;;;;;;;6.13;5.50;;;21.80;63.90;;;;;;5047261;28;20649;-48
2022/10/19 08:31:46;;;;;;;6.60;6.00;;;21.80;64.30;;;;;;5049172;28;20435;-50
2022/10/19 08:34:13;;;;;;;5.87;5.37;;;21.70;64.00;;;;;;5049222;28;20513;-49
2022/10/19 08:36:39;;;;;;;6.57;5.80;;;21.80;64.40;;;;;;5048968;28;20495;-50
2022/10/19 08:39:07;;;;;;;7.17;6.57;;;21.80;64.20;;;;;;5050265;28;20447;-48
2022/10/19 08:41:39;;;;;;;7.73;5.50;;;21.90;64.20;;;;;;5044862;28;20443;-52
2022/10/19 08:44:23;;;;;;;6.93;6.23;;;21.90;63.70;;;;;;5042639;28;20494;-48
2022/10/19 08:47:10;;;;;;;7.10;6.37;;;21.60;63.90;;;;;;5047812;28;20443;-53
2022/10/19 08:49:35;;;;;;;5.10;4.60;;;21.80;64.10;;;;;;5039674;28;20854;-50
2022/10/19 08:52:06;;;;;;;4.23;3.83;;;21.80;63.90;;;;;;5041399;28;20443;-52
2022/10/19 08:54:53;;;;;;;4.37;4.00;;;21.70;64.20;;;;;;5044741;28;20287;-48
2022/10/19 08:57:53;;;;;;;3.50;3.20;;;21.70;63.80;;;;;;5045240;28;20465;-49
2022/10/19 09:00:18;;;;;;;3.87;3.20;;;21.90;63.30;;;;;;5050089;28;20447;-52
2022/10/19 09:03:24;;;;;;;3.80;3.47;;;21.80;62.90;;;;;;5050273;28;20449;-51
2022/10/19 09:05:58;;;;;;;3.90;3.60;;;21.60;63.00;;;;;;4956564;28;20609;-47
2022/10/19 09:08:24;;;;;;;3.50;3.20;;;21.70;63.90;;;;;;4953091;28;21709;-48
2022/10/19 09:10:52;;;;;;;3.60;3.00;;;22.00;63.50;;;;;;5000862;28;20488;-51
2022/10/19 09:13:24;;;;;;;3.27;2.80;;;22.30;62.50;;;;;;5047077;28;20439;-51
2022/10/19 09:15:51;;;;;;;3.10;2.73;;;22.20;61.00;;;;;;5046223;28;20953;-50
2022/10/19 09:18:31;;;;;;;2.93;2.70;;;22.30;61.40;;;;;;5045377;28;20439;-52
2022/10/19 09:20:59;;;;;;;3.00;2.80;;;22.40;61.10;;;;;;5048918;28;20462;-50
2022/10/19 09:23:46;;;;;;;4.80;3.10;;;22.40;60.90;;;;;;5043225;28;20801;-52
2022/10/19 09:26:18;;;;;;;3.70;2.77;;;22.40;60.70;;;;;;5042014;28;20447;-47
2022/10/19 09:29:11;;;;;;;2.60;2.23;;;22.30;61.10;;;;;;5049254;28;20459;-51
2022/10/19 09:31:38;;;;;;;3.50;3.20;;;22.20;61.10;;;;;;5043428;28;20462;-50
2022/10/19 09:34:28;;;;;;;3.80;2.97;;;22.10;61.00;;;;;;5050140;28;20486;-53
2022/10/19 09:36:56;;;;;;;3.53;2.63;;;21.60;62.60;;;;;;5047395;28;20571;-49
2022/10/19 09:39:23;;;;;;;3.03;2.73;;;21.60;62.30;;;;;;5047803;28;21017;-52
2022/10/19 09:41:53;;;;;;;3.53;3.23;;;21.40;62.80;;;;;;5043416;28;20532;-50
2022/10/19 09:44:19;;;;;;;4.40;3.00;;;21.40;63.50;;;;;;5048371;28;20439;-51
2022/10/19 09:46:51;;;;;;;3.17;2.97;;;21.30;63.60;;;;;;5042099;28;20514;-52
2022/10/19 09:49:18;;;;;;;7.90;2.83;;;21.30;63.80;;;;;;5046695;28;20814;-48
2022/10/19 09:51:50;;;;;;;3.10;2.73;;;21.50;63.00;;;;;;5039457;28;20644;-48
2022/10/19 09:54:31;;;;;;;3.80;2.30;;;21.60;62.60;;;;;;5044656;28;20495;-50
2022/10/19 09:56:57;;;;;;;2.80;2.60;;;21.90;62.10;;;;;;5041334;28;20790;-48
2022/10/19 09:59:27;;;;;;;3.83;2.80;;;22.00;61.70;;;;;;5043578;28;20443;-51
2022/10/19 10:02:15;;;;;;;2.70;2.50;;;21.90;60.60;;;;;;5041305;28;20192;-48
2022/10/19 10:04:45;;;;;;;3.30;3.10;;;21.60;62.40;;;;;;5049841;28;20446;-50
2022/10/19 10:07:16;;;;;;;5.77;3.17;;;21.70;62.60;;;;;;5044060;28;20476;-48
2022/10/19 10:09:43;;;;;;;3.60;3.27;;;21.70;61.80;;;;;;5047749;28;20446;-48
2022/10/19 10:12:12;;;;;;;4.93;3.20;;;21.60;62.40;;;;;;5047923;28;20478;-49
2022/10/19 10:14:39;;;;;;;5.33;3.00;;;21.50;62.90;;;;;;5051220;28;20490;-49
2022/10/19 10:17:29;;;;;;;5.83;3.57;;;21.80;62.40;;;;;;5040744;28;20441;-51
2022/10/19 10:19:57;;;;;;;2.97;2.67;;;21.90;61.60;;;;;;5047965;28;20447;-52
2022/10/19 10:22:27;;;;;;;3.50;3.20;;;22.10;61.00;;;;;;5045281;28;20543;-52
2022/10/19 10:24:55;;;;;;;4.17;3.77;;;22.10;61.50;;;;;;5048790;28;20442;-52
2022/10/19 10:27:34;;;;;;;6.40;2.80;;;22.30;60.70;;;;;;5047874;28;20557;-52
2022/10/19 10:30:08;;;;;;;4.20;3.00;;;22.50;60.20;;;;;;5046655;28;20475;-52
2022/10/19 10:32:42;;;;;;;3.30;3.03;;;22.50;59.80;;;;;;5039547;28;20864;-51
2022/10/19 10:35:24;;;;;;;4.57;3.70;;;22.40;59.50;;;;;;5042673;28;20896;-53
2022/10/19 10:37:50;;;;;;;4.93;3.67;;;22.60;60.20;;;;;;5045154;28;20478;-54
2022/10/19 10:40:28;;;;;;;3.97;2.90;;;22.80;59.40;;;;;;5046155;28;20442;-51
2022/10/19 10:43:00;;;;;;;4.80;3.83;;;23.00;59.30;;;;;;5039905;28;20193;-50
2022/10/19 10:45:53;;;;;;;6.20;3.37;;;23.10;58.60;;;;;;5048914;28;20430;-51
2022/10/19 10:48:43;;;;;;;5.33;3.70;;;22.90;59.10;;;;;;5039750;28;20501;-52
2022/10/19 10:51:22;;;;;;;3.23;2.93;;;22.80;58.90;;;;;;5046615;28;21585;-51
2022/10/19 10:53:48;;;;;;;4.23;3.93;;;22.70;59.10;;;;;;5046173;28;20461;-53
2022/10/19 10:56:28;;;;;;;4.17;3.87;;;23.00;58.20;;;;;;5047445;28;20455;-52
2022/10/19 10:59:00;;;;;;;4.10;3.47;;;23.00;57.70;;;;;;5048026;28;20203;-52
2022/10/19 11:01:47;;;;;;;4.10;3.70;;;23.00;58.10;;;;;;5049711;28;20435;-52
2022/10/19 11:04:22;;;;;;;3.87;3.47;;;23.20;57.60;;;;;;5047591;28;20475;-52
2022/10/19 11:06:58;;;;;;;3.43;3.17;;;23.20;57.20;;;;;;5047481;28;20450;-49
2022/10/19 11:09:35;;;;;;;5.70;3.40;;;23.00;57.70;;;;;;5046945;28;20958;-48
2022/10/19 11:12:05;;;;;;;4.27;3.53;;;22.80;57.80;;;;;;5046943;28;20585;-48
2022/10/19 11:14:52;;;;;;;3.50;3.20;;;22.70;57.90;;;;;;5048893;28;20490;-48
2022/10/19 11:17:24;;;;;;;3.93;3.40;;;22.10;58.60;;;;;;5036662;28;20565;-48
2022/10/19 11:19:50;;;;;;;3.50;3.23;;;22.10;59.90;;;;;;5043307;28;20972;-50
2022/10/19 11:22:39;;;;;;;3.70;3.40;;;22.10;59.40;;;;;;5047270;28;20508;-48
2022/10/19 11:25:24;;;;;;;3.33;3.03;;;22.30;59.40;;;;;;5044033;28;20470;-48
2022/10/19 11:28:36;;;;;;;4.40;3.90;;;22.60;58.40;;;;;;5035648;28;20604;-48
2022/10/19 11:31:16;;;;;;;3.43;2.50;;;22.80;57.80;;;;;;5043508;28;20535;-49
2022/10/19 11:33:58;;;;;;;3.07;2.87;;;22.70;58.10;;;;;;5042937;28;20455;-49
2022/10/19 11:36:43;;;;;;;3.50;2.70;;;22.90;57.90;;;;;;5040921;28;20445;-48
2022/10/19 11:39:40;;;;;;;2.57;2.37;;;22.90;58.00;;;;;;5046427;28;20439;-48
2022/10/19 11:42:10;;;;;;;2.20;2.10;;;23.00;57.50;;;;;;5045905;28;20443;-49
2022/10/19 11:44:55;;;;;;;5.43;2.60;;;23.20;58.30;;;;;;5050393;28;21638;-50
2022/10/19 11:47:30;;;;;;;4.40;2.67;;;23.60;57.00;;;;;;5038690;28;20469;-50
2022/10/19 11:50:24;;;;;;;2.43;2.23;;;23.90;55.00;;;;;;5048835;28;20514;-49
2022/10/19 11:52:56;;;;;;;2.97;2.67;;;24.00;55.80;;;;;;5047906;28;20455;-48
2022/10/19 11:55:40;;;;;;;5.53;3.30;;;24.10;55.40;;;;;;5040896;28;20533;-48
2022/10/19 11:58:45;;;;;;;2.50;2.30;;;23.90;54.50;;;;;;5045311;28;20435;-49
2022/10/19 12:01:21;;;;;;;2.43;2.27;;;23.70;55.60;;;;;;5049982;28;20446;-49
2022/10/19 12:04:11;;;;;;;3.07;2.77;;;23.70;56.60;;;;;;5047738;28;20442;-49
2022/10/19 12:07:11;;;;;;;7.80;3.00;;;24.30;55.50;;;;;;5052645;28;20447;-48
2022/10/19 12:09:51;;;;;;;2.80;2.60;;;24.70;53.70;;;;;;5044708;28;20447;-51
2022/10/19 12:12:22;;;;;;;4.67;3.13;;;24.80;53.80;;;;;;5052746;28;20422;-48
2022/10/19 12:14:51;;;;;;;3.00;2.80;;;24.90;52.80;;;;;;5051561;28;20505;-48
2022/10/19 12:17:25;;;;;;;3.00;2.80;;;24.90;52.80;;;;;;5047214;28;21878;-48
2022/10/19 12:19:57;;;;;;;3.70;3.20;;;24.80;52.90;;;;;;5051684;28;20542;-49
2022/10/19 12:22:27;;;;;;;3.87;3.47;;;24.60;52.90;;;;;;5046697;28;20450;-49
2022/10/19 12:24:56;;;;;;;2.90;2.53;;;24.50;52.30;;;;;;5051921;28;20442;-48
2022/10/19 12:27:35;;;;;;;4.07;3.67;;;24.20;54.00;;;;;;5050577;28;20493;-49
2022/10/19 12:30:11;;;;;;;2.87;2.67;;;24.40;53.10;;;;;;5052247;28;20442;-49
2022/10/19 12:33:14;;;;;;;2.53;2.33;;;24.60;53.60;;;;;;5038147;28;20533;-48
2022/10/19 12:35:45;;;;;;;2.97;2.63;;;25.00;53.00;;;;;;5047637;28;20568;-48
2022/10/19 12:38:24;;;;;;;4.03;3.00;;;25.10;52.60;;;;;;5048975;28;21157;-49
2022/10/19 12:41:13;;;;;;;4.00;3.70;;;25.10;52.10;;;;;;5050753;28;20446;-49
2022/10/19 12:43:55;;;;;;;3.83;3.30;;;24.60;52.00;;;;;;5039070;28;20440;-49
2022/10/19 12:46:27;;;;;;;2.37;2.27;;;24.40;53.10;;;;;;5049086;28;20557;-50
2022/10/19 12:49:29;;;;;;;3.87;2.90;;;24.70;53.20;;;;;;5042528;28;20455;-49
2022/10/19 12:51:59;;;;;;;2.67;2.47;;;25.20;52.10;;;;;;5046159;28;20572;-49
2022/10/19 12:54:28;;;;;;;2.27;2.17;;;25.40;51.10;;;;;;5052153;28;20495;-49
2022/10/19 12:56:57;;;;;;;3.07;2.80;;;25.60;51.30;;;;;;5049716;28;20450;-49
2022/10/19 12:59:32;;;;;;;3.50;2.87;;;25.80;50.80;;;;;;5043172;28;20474;-50
2022/10/19 13:02:01;;;;;;;2.60;2.40;;;25.90;50.00;;;;;;5042651;28;20486;-50
2022/10/19 13:04:30;;;;;;;5.93;3.30;;;26.20;50.30;;;;;;5044441;28;20538;-50